Time,TemperatureF,DewpointF,PressureIn,WindDirection,WindDirectionDegrees,WindSpeedMPH,WindSpeedGustMPH,Humidity,HourlyPrecipIn,Conditions,Clouds,dailyrainin,SolarRadiationWatts/m^2,SoftwareType,DateUTC
2013-03-24 03:20:00,30.2,20.0,29.37,WNW,290,0.0,1.0,66,0.00,,,0.00,0,weatherlink.com 1.10,2013-03-24 07:20:00,
2013-03-24 03:27:00,30.2,20.0,29.37,WNW,290,0.0,1.0,66,0.00,,,0.00,0,weatherlink.com 1.10,2013-03-24 07:27:00,
2013-03-24 03:42:00,30.0,20.0,29.37,WNW,290,0.0,2.0,67,0.00,,,0.00,0,weatherlink.com 1.10,2013-03-24 07:42:00,
2013-03-24 03:57:00,30.1,20.0,29.38,WNW,290,0.0,2.0,67,0.00,,,0.00,0,weatherlink.com 1.10,2013-03-24 07:57:00,
2013-03-24 04:27:00,29.6,21.0,29.39,WNW,290,0.0,1.0,69,0.00,,,0.00,0,weatherlink.com 1.10,2013-03-24 08:27:00,
2013-03-24 04:42:00,29.7,21.0,29.39,WNW,290,0.0,2.0,70,0.00,,,0.00,0,weatherlink.com 1.10,2013-03-24 08:42:00,
2013-03-24 04:57:00,29.8,21.0,29.39,WNW,290,0.0,1.0,70,0.00,,,0.00,0,weatherlink.com 1.10,2013-03-24 08:57:00,
2013-03-24 05:12:00,29.4,21.0,29.39,WNW,290,0.0,2.0,71,0.00,,,0.00,0,weatherlink.com 1.10,2013-03-24 09:12:00,
2013-03-24 05:27:00,29.3,21.0,29.40,WNW,290,0.0,1.0,71,0.00,,,0.00,0,weatherlink.com 1.10,2013-03-24 09:27:00,
2013-03-24 05:42:00,29.4,21.0,29.41,WNW,290,0.0,0.0,71,0.00,,,0.00,0,weatherlink.com 1.10,2013-03-24 09:42:00,
2013-03-24 05:57:00,28.9,21.0,29.41,WNW,290,0.0,0.0,72,0.00,,,0.00,0,weatherlink.com 1.10,2013-03-24 09:57:00,
2013-03-24 06:12:00,28.8,21.0,29.41,WNW,290,0.0,0.0,73,0.00,,,0.00,0,weatherlink.com 1.10,2013-03-24 10:12:00,
2013-03-24 06:27:00,28.6,21.0,29.41,WNW,290,0.0,0.0,74,0.00,,,0.00,0,weatherlink.com 1.10,2013-03-24 10:27:00,
2013-03-24 06:57:00,29.0,21.0,29.40,WNW,290,0.0,2.0,72,0.00,,,0.00,11,weatherlink.com 1.10,2013-03-24 10:57:00,
2013-03-24 07:12:00,29.4,21.0,29.41,WNW,290,0.0,3.0,71,0.00,,,0.00,21,weatherlink.com 1.10,2013-03-24 11:12:00,
2013-03-24 07:43:00,30.4,22.0,29.42,WNW,294,1.0,3.0,70,0.00,,,0.00,54,weatherlink.com 1.10,2013-03-24 11:43:00,
2013-03-24 07:58:00,31.4,23.0,29.43,WNW,298,1.0,3.0,70,0.00,,,0.00,88,weatherlink.com 1.10,2013-03-24 11:58:00,
2013-03-24 08:13:00,32.6,23.0,29.43,WNW,291,2.0,5.0,68,0.00,,,0.00,188,weatherlink.com 1.10,2013-03-24 12:13:00,
2013-03-24 08:28:00,33.7,23.0,29.43,West,274,0.0,4.0,65,0.00,,,0.00,246,weatherlink.com 1.10,2013-03-24 12:28:00,
2013-03-24 08:43:00,34.8,23.0,29.44,North,355,1.0,5.0,63,0.00,,,0.00,294,weatherlink.com 1.10,2013-03-24 12:43:00,
2013-03-24 08:58:00,35.5,24.0,29.44,WNW,298,0.0,3.0,63,0.00,,,0.00,345,weatherlink.com 1.10,2013-03-24 12:58:00,
2013-03-24 14:59:00,43.9,26.0,29.27,ENE,60,0.0,7.0,49,0.00,,,0.00,357,weatherlink.com 1.10,2013-03-24 18:59:00,
2013-03-24 15:13:00,44.0,24.0,29.26,North,5,0.0,5.0,46,0.00,,,0.00,422,weatherlink.com 1.10,2013-03-24 19:13:00,
2013-03-24 15:28:00,43.4,24.0,29.25,ENE,67,0.0,4.0,46,0.00,,,0.00,269,weatherlink.com 1.10,2013-03-24 19:28:00,
2013-03-24 15:43:00,43.8,24.0,29.25,ENE,73,0.0,8.0,45,0.00,,,0.00,132,weatherlink.com 1.10,2013-03-24 19:43:00,
2013-03-24 15:58:00,44.0,24.0,29.24,ENE,59,4.0,5.0,45,0.00,,,0.00,111,weatherlink.com 1.10,2013-03-24 19:58:00,
2013-03-24 16:13:00,43.2,24.0,29.23,NNW,340,1.0,8.0,47,0.00,,,0.00,162,weatherlink.com 1.10,2013-03-24 20:13:00,
2013-03-24 16:43:00,43.5,24.0,29.24,NE,48,0.0,4.0,47,0.00,,,0.00,149,weatherlink.com 1.10,2013-03-24 20:43:00,
2013-03-24 16:58:00,43.5,24.0,29.24,North,360,2.0,4.0,47,0.00,,,0.00,151,weatherlink.com 1.10,2013-03-24 20:58:00,
2013-03-24 17:13:00,43.5,25.0,29.23,North,349,1.0,5.0,48,0.00,,,0.00,127,weatherlink.com 1.10,2013-03-24 21:13:00,
2013-03-24 17:28:00,43.1,25.0,29.23,NNE,29,0.0,5.0,50,0.00,,,0.00,105,weatherlink.com 1.10,2013-03-24 21:28:00,
2013-03-24 17:43:00,42.7,25.0,29.23,NNW,344,0.0,6.0,50,0.00,,,0.00,88,weatherlink.com 1.10,2013-03-24 21:43:00,
2013-03-24 17:58:00,41.8,24.0,29.24,ENE,70,4.0,6.0,50,0.00,,,0.00,65,weatherlink.com 1.10,2013-03-24 21:58:00,
2013-03-24 18:28:00,41.2,25.0,29.25,North,5,1.0,3.0,52,0.00,,,0.00,25,weatherlink.com 1.10,2013-03-24 22:28:00,
2013-03-24 18:43:00,40.9,25.0,29.24,North,355,0.0,2.0,53,0.00,,,0.00,14,weatherlink.com 1.10,2013-03-24 22:43:00,
2013-03-24 18:58:00,40.6,24.0,29.23,North,5,0.0,4.0,52,0.00,,,0.00,5,weatherlink.com 1.10,2013-03-24 22:58:00,
2013-03-24 19:13:00,40.2,24.0,29.23,NNW,340,0.0,3.0,53,0.00,,,0.00,0,weatherlink.com 1.10,2013-03-24 23:13:00,
2013-03-24 19:28:00,39.9,24.0,29.24,ESE,106,0.0,2.0,54,0.00,,,0.00,0,weatherlink.com 1.10,2013-03-24 23:28:00,
2013-03-24 19:43:00,39.8,24.0,29.25,North,360,0.0,3.0,54,0.00,,,0.00,0,weatherlink.com 1.10,2013-03-24 23:43:00,
2013-03-24 19:59:00,39.6,24.0,29.26,NNW,342,0.0,0.0,53,0.00,,,0.00,0,weatherlink.com 1.10,2013-03-24 23:59:00,
2013-03-24 20:14:00,39.2,25.0,29.27,NNW,342,0.0,1.0,56,0.00,,,0.00,0,weatherlink.com 1.10,2013-03-25 00:14:00,
2013-03-24 20:29:00,39.0,25.0,29.27,NNW,342,0.0,0.0,58,0.00,,,0.00,0,weatherlink.com 1.10,2013-03-25 00:29:00,
2013-03-24 20:59:00,38.8,25.0,29.27,NNW,342,0.0,1.0,57,0.00,,,0.00,0,weatherlink.com 1.10,2013-03-25 00:59:00,
2013-03-24 21:14:00,38.6,25.0,29.27,NNW,342,0.0,1.0,58,0.00,,,0.00,0,weatherlink.com 1.10,2013-03-25 01:14:00,
2013-03-24 21:29:00,38.3,25.0,29.27,NNW,342,0.0,0.0,60,0.00,,,0.00,0,weatherlink.com 1.10,2013-03-25 01:29:00,
2013-03-24 21:59:00,38.0,25.0,29.27,NNW,342,0.0,1.0,59,0.00,,,0.00,0,weatherlink.com 1.10,2013-03-25 01:59:00,
2013-03-24 22:14:00,37.7,25.0,29.26,NNE,19,0.0,1.0,60,0.00,,,0.00,0,weatherlink.com 1.10,2013-03-25 02:14:00,
2013-03-24 22:29:00,37.8,24.0,29.26,NNE,19,0.0,1.0,58,0.00,,,0.00,0,weatherlink.com 1.10,2013-03-25 02:29:00,
2013-03-24 22:44:00,37.7,24.0,29.26,NNE,28,0.0,1.0,59,0.00,,,0.00,0,weatherlink.com 1.10,2013-03-25 02:44:00,
2013-03-24 23:14:00,37.4,24.0,29.25,NNE,33,0.0,2.0,60,0.00,,,0.00,0,weatherlink.com 1.10,2013-03-25 03:14:00,
2013-03-24 23:29:00,37.0,25.0,29.24,NNE,33,0.0,0.0,61,0.00,,,0.00,0,weatherlink.com 1.10,2013-03-25 03:29:00,
2013-03-24 23:59:00,36.9,24.0,29.23,ESE,103,0.0,2.0,61,0.00,,,0.00,0,weatherlink.com 1.10,2013-03-25 03:59:00,